sensor_id;sensor_type;location;lat;lon;timestamp;P1;durP1;ratioP1;P2;durP2;ratioP2
34196;SDS011;36594;45.192;5.722;2022-07-23T00:00:34;3.42;;;3.12;;
34196;SDS011;36594;45.192;5.722;2022-07-23T00:03:22;3.10;;;2.90;;
34196;SDS011;36594;45.192;5.722;2022-07-23T00:06:11;3.20;;;2.90;;
34196;SDS011;36594;45.192;5.722;2022-07-23T00:08:59;3.22;;;3.00;;
34196;SDS011;36594;45.192;5.722;2022-07-23T00:11:47;3.15;;;2.95;;
34196;SDS011;36594;45.192;5.722;2022-07-23T00:14:35;3.08;;;2.87;;
34196;SDS011;36594;45.192;5.722;2022-07-23T00:17:23;3.35;;;3.05;;
34196;SDS011;36594;45.192;5.722;2022-07-23T00:20:12;3.20;;;2.90;;
34196;SDS011;36594;45.192;5.722;2022-07-23T00:23:01;3.20;;;3.00;;
34196;SDS011;36594;45.192;5.722;2022-07-23T00:25:50;3.20;;;3.00;;
34196;SDS011;36594;45.192;5.722;2022-07-23T00:28:39;3.40;;;2.90;;
34196;SDS011;36594;45.192;5.722;2022-07-23T00:31:28;2.98;;;2.77;;
34196;SDS011;36594;45.192;5.722;2022-07-23T00:34:16;3.00;;;2.80;;
34196;SDS011;36594;45.192;5.722;2022-07-23T00:37:04;3.05;;;2.75;;
34196;SDS011;36594;45.192;5.722;2022-07-23T00:39:52;3.20;;;2.90;;
34196;SDS011;36594;45.192;5.722;2022-07-23T00:42:41;3.17;;;2.87;;
34196;SDS011;36594;45.192;5.722;2022-07-23T00:45:30;2.70;;;2.50;;
34196;SDS011;36594;45.192;5.722;2022-07-23T00:48:19;2.43;;;2.23;;
34196;SDS011;36594;45.192;5.722;2022-07-23T00:51:07;2.85;;;2.65;;
34196;SDS011;36594;45.192;5.722;2022-07-23T00:53:56;2.90;;;2.70;;
34196;SDS011;36594;45.192;5.722;2022-07-23T00:56:45;2.42;;;2.33;;
34196;SDS011;36594;45.192;5.722;2022-07-23T00:59:34;2.50;;;2.40;;
34196;SDS011;36594;45.192;5.722;2022-07-23T01:02:24;2.58;;;2.40;;
34196;SDS011;36594;45.192;5.722;2022-07-23T01:05:13;5.75;;;2.40;;
34196;SDS011;36594;45.192;5.722;2022-07-23T01:08:02;2.73;;;2.53;;
34196;SDS011;36594;45.192;5.722;2022-07-23T01:10:51;2.77;;;2.25;;
34196;SDS011;36594;45.192;5.722;2022-07-23T01:13:41;2.70;;;2.50;;
34196;SDS011;36594;45.192;5.722;2022-07-23T01:16:32;2.77;;;2.50;;
34196;SDS011;36594;45.192;5.722;2022-07-23T01:19:20;2.77;;;2.45;;
34196;SDS011;36594;45.192;5.722;2022-07-23T01:22:10;3.98;;;2.60;;
34196;SDS011;36594;45.192;5.722;2022-07-23T01:24:59;2.30;;;2.20;;
34196;SDS011;36594;45.192;5.722;2022-07-23T01:27:48;2.67;;;2.50;;
34196;SDS011;36594;45.192;5.722;2022-07-23T01:30:38;3.10;;;2.45;;
34196;SDS011;36594;45.192;5.722;2022-07-23T01:33:27;2.40;;;2.30;;
34196;SDS011;36594;45.192;5.722;2022-07-23T01:36:17;3.08;;;2.62;;
34196;SDS011;36594;45.192;5.722;2022-07-23T01:39:06;2.70;;;2.50;;
34196;SDS011;36594;45.192;5.722;2022-07-23T01:41:55;2.90;;;2.50;;
34196;SDS011;36594;45.192;5.722;2022-07-23T01:44:44;2.80;;;2.60;;
34196;SDS011;36594;45.192;5.722;2022-07-23T01:47:34;2.62;;;2.50;;
34196;SDS011;36594;45.192;5.722;2022-07-23T01:50:22;3.22;;;2.52;;
34196;SDS011;36594;45.192;5.722;2022-07-23T01:53:12;2.77;;;2.52;;
34196;SDS011;36594;45.192;5.722;2022-07-23T01:56:02;2.83;;;2.57;;
34196;SDS011;36594;45.192;5.722;2022-07-23T01:58:51;3.02;;;2.65;;
34196;SDS011;36594;45.192;5.722;2022-07-23T02:01:39;2.80;;;2.60;;
34196;SDS011;36594;45.192;5.722;2022-07-23T02:04:27;3.20;;;2.60;;
34196;SDS011;36594;45.192;5.722;2022-07-23T02:07:16;2.62;;;2.42;;
34196;SDS011;36594;45.192;5.722;2022-07-23T02:10:05;2.80;;;2.60;;
34196;SDS011;36594;45.192;5.722;2022-07-23T02:12:56;3.00;;;2.80;;
34196;SDS011;36594;45.192;5.722;2022-07-23T02:15:45;2.83;;;2.52;;
34196;SDS011;36594;45.192;5.722;2022-07-23T02:18:34;2.70;;;2.50;;
34196;SDS011;36594;45.192;5.722;2022-07-23T02:21:22;2.90;;;2.60;;
34196;SDS011;36594;45.192;5.722;2022-07-23T02:24:12;2.60;;;2.40;;
34196;SDS011;36594;45.192;5.722;2022-07-23T02:27:01;3.10;;;2.80;;
34196;SDS011;36594;45.192;5.722;2022-07-23T02:29:51;2.60;;;2.50;;
34196;SDS011;36594;45.192;5.722;2022-07-23T02:32:39;2.50;;;2.40;;
34196;SDS011;36594;45.192;5.722;2022-07-23T02:35:29;2.47;;;2.37;;
34196;SDS011;36594;45.192;5.722;2022-07-23T02:38:19;2.60;;;2.50;;
34196;SDS011;36594;45.192;5.722;2022-07-23T02:41:09;3.05;;;2.80;;
34196;SDS011;36594;45.192;5.722;2022-07-23T02:43:58;3.52;;;2.45;;
34196;SDS011;36594;45.192;5.722;2022-07-23T02:46:47;2.77;;;2.67;;
34196;SDS011;36594;45.192;5.722;2022-07-23T02:49:36;2.87;;;2.67;;
34196;SDS011;36594;45.192;5.722;2022-07-23T02:52:25;2.70;;;2.50;;
34196;SDS011;36594;45.192;5.722;2022-07-23T02:55:14;3.05;;;2.75;;
34196;SDS011;36594;45.192;5.722;2022-07-23T02:58:02;2.70;;;2.50;;
34196;SDS011;36594;45.192;5.722;2022-07-23T03:00:51;2.70;;;2.50;;
34196;SDS011;36594;45.192;5.722;2022-07-23T03:03:40;2.53;;;2.43;;
34196;SDS011;36594;45.192;5.722;2022-07-23T03:06:28;2.62;;;2.50;;
34196;SDS011;36594;45.192;5.722;2022-07-23T03:09:17;2.58;;;2.37;;
34196;SDS011;36594;45.192;5.722;2022-07-23T03:12:06;2.40;;;2.30;;
34196;SDS011;36594;45.192;5.722;2022-07-23T03:14:55;3.00;;;2.80;;
34196;SDS011;36594;45.192;5.722;2022-07-23T03:17:43;2.40;;;2.30;;
34196;SDS011;36594;45.192;5.722;2022-07-23T03:20:32;3.77;;;2.65;;
34196;SDS011;36594;45.192;5.722;2022-07-23T03:23:21;2.67;;;2.50;;
34196;SDS011;36594;45.192;5.722;2022-07-23T03:26:09;2.67;;;2.47;;
34196;SDS011;36594;45.192;5.722;2022-07-23T03:28:58;2.90;;;2.70;;
34196;SDS011;36594;45.192;5.722;2022-07-23T03:31:48;2.55;;;2.40;;
34196;SDS011;36594;45.192;5.722;2022-07-23T03:34:36;2.90;;;2.60;;
34196;SDS011;36594;45.192;5.722;2022-07-23T03:37:25;2.70;;;2.50;;
34196;SDS011;36594;45.192;5.722;2022-07-23T03:40:16;2.80;;;2.60;;
34196;SDS011;36594;45.192;5.722;2022-07-23T03:43:05;2.90;;;2.70;;
34196;SDS011;36594;45.192;5.722;2022-07-23T03:45:54;2.80;;;2.60;;
34196;SDS011;36594;45.192;5.722;2022-07-23T03:48:42;2.70;;;2.50;;
34196;SDS011;36594;45.192;5.722;2022-07-23T03:51:30;3.00;;;2.80;;
34196;SDS011;36594;45.192;5.722;2022-07-23T03:54:19;2.87;;;2.67;;
34196;SDS011;36594;45.192;5.722;2022-07-23T03:57:07;2.67;;;2.55;;
34196;SDS011;36594;45.192;5.722;2022-07-23T03:59:56;2.95;;;2.72;;
34196;SDS011;36594;45.192;5.722;2022-07-23T04:02:45;2.77;;;2.58;;
34196;SDS011;36594;45.192;5.722;2022-07-23T04:05:34;2.90;;;2.80;;
34196;SDS011;36594;45.192;5.722;2022-07-23T04:08:24;2.80;;;2.50;;
34196;SDS011;36594;45.192;5.722;2022-07-23T04:11:13;3.20;;;2.90;;
34196;SDS011;36594;45.192;5.722;2022-07-23T04:14:02;2.90;;;2.70;;
34196;SDS011;36594;45.192;5.722;2022-07-23T04:16:50;2.90;;;2.70;;
34196;SDS011;36594;45.192;5.722;2022-07-23T04:19:40;2.98;;;2.58;;
34196;SDS011;36594;45.192;5.722;2022-07-23T04:22:31;3.75;;;2.50;;
34196;SDS011;36594;45.192;5.722;2022-07-23T04:25:19;3.02;;;2.72;;
34196;SDS011;36594;45.192;5.722;2022-07-23T04:28:09;2.77;;;2.58;;
34196;SDS011;36594;45.192;5.722;2022-07-23T04:30:57;2.90;;;2.70;;
34196;SDS011;36594;45.192;5.722;2022-07-23T04:33:46;2.80;;;2.60;;
34196;SDS011;36594;45.192;5.722;2022-07-23T04:36:35;3.08;;;2.85;;
34196;SDS011;36594;45.192;5.722;2022-07-23T04:39:23;3.00;;;2.80;;
34196;SDS011;36594;45.192;5.722;2022-07-23T04:42:12;2.87;;;2.67;;
34196;SDS011;36594;45.192;5.722;2022-07-23T04:45:01;3.35;;;3.05;;
34196;SDS011;36594;45.192;5.722;2022-07-23T04:47:50;2.92;;;2.67;;
34196;SDS011;36594;45.192;5.722;2022-07-23T04:50:38;3.10;;;2.80;;
34196;SDS011;36594;45.192;5.722;2022-07-23T04:53:28;3.02;;;2.87;;
34196;SDS011;36594;45.192;5.722;2022-07-23T04:56:18;3.10;;;2.80;;
34196;SDS011;36594;45.192;5.722;2022-07-23T04:59:07;3.10;;;2.90;;
34196;SDS011;36594;45.192;5.722;2022-07-23T05:01:56;3.30;;;3.10;;
34196;SDS011;36594;45.192;5.722;2022-07-23T05:04:45;3.30;;;3.00;;
34196;SDS011;36594;45.192;5.722;2022-07-23T05:07:34;3.20;;;2.98;;
34196;SDS011;36594;45.192;5.722;2022-07-23T05:10:22;3.27;;;2.98;;
34196;SDS011;36594;45.192;5.722;2022-07-23T05:13:11;3.50;;;3.00;;
34196;SDS011;36594;45.192;5.722;2022-07-23T05:16:02;3.08;;;2.87;;
34196;SDS011;36594;45.192;5.722;2022-07-23T05:18:51;3.25;;;3.00;;
34196;SDS011;36594;45.192;5.722;2022-07-23T05:21:40;3.30;;;3.00;;
34196;SDS011;36594;45.192;5.722;2022-07-23T05:24:28;2.95;;;2.75;;
34196;SDS011;36594;45.192;5.722;2022-07-23T05:27:18;3.33;;;3.10;;
34196;SDS011;36594;45.192;5.722;2022-07-23T05:30:07;3.72;;;3.12;;
34196;SDS011;36594;45.192;5.722;2022-07-23T05:32:57;3.47;;;3.17;;
34196;SDS011;36594;45.192;5.722;2022-07-23T05:35:45;3.00;;;2.80;;
34196;SDS011;36594;45.192;5.722;2022-07-23T05:38:42;3.00;;;2.80;;
34196;SDS011;36594;45.192;5.722;2022-07-23T05:41:31;3.17;;;2.98;;
34196;SDS011;36594;45.192;5.722;2022-07-23T05:44:21;2.92;;;2.72;;
34196;SDS011;36594;45.192;5.722;2022-07-23T05:47:09;3.20;;;2.90;;
34196;SDS011;36594;45.192;5.722;2022-07-23T05:49:58;3.20;;;3.00;;
34196;SDS011;36594;45.192;5.722;2022-07-23T05:52:47;3.10;;;2.90;;
34196;SDS011;36594;45.192;5.722;2022-07-23T05:55:53;3.47;;;3.17;;
34196;SDS011;36594;45.192;5.722;2022-07-23T05:58:41;3.25;;;3.05;;
34196;SDS011;36594;45.192;5.722;2022-07-23T06:01:30;3.35;;;3.08;;
34196;SDS011;36594;45.192;5.722;2022-07-23T06:04:29;3.02;;;2.83;;
34196;SDS011;36594;45.192;5.722;2022-07-23T06:07:22;3.30;;;3.10;;
34196;SDS011;36594;45.192;5.722;2022-07-23T06:10:11;3.20;;;3.00;;
34196;SDS011;36594;45.192;5.722;2022-07-23T06:13:00;3.20;;;3.00;;
34196;SDS011;36594;45.192;5.722;2022-07-23T06:15:49;3.65;;;3.35;;
34196;SDS011;36594;45.192;5.722;2022-07-23T06:18:38;4.08;;;3.17;;
34196;SDS011;36594;45.192;5.722;2022-07-23T06:21:27;3.50;;;3.20;;
34196;SDS011;36594;45.192;5.722;2022-07-23T06:24:17;3.70;;;3.40;;
34196;SDS011;36594;45.192;5.722;2022-07-23T06:27:06;4.17;;;3.20;;
34196;SDS011;36594;45.192;5.722;2022-07-23T06:29:54;3.72;;;3.40;;
34196;SDS011;36594;45.192;5.722;2022-07-23T06:32:42;4.72;;;3.62;;
34196;SDS011;36594;45.192;5.722;2022-07-23T06:35:34;3.70;;;3.40;;
34196;SDS011;36594;45.192;5.722;2022-07-23T06:38:24;3.87;;;3.50;;
34196;SDS011;36594;45.192;5.722;2022-07-23T06:41:13;3.90;;;3.60;;
34196;SDS011;36594;45.192;5.722;2022-07-23T06:44:02;3.90;;;3.70;;
34196;SDS011;36594;45.192;5.722;2022-07-23T06:46:53;3.80;;;3.50;;
34196;SDS011;36594;45.192;5.722;2022-07-23T06:49:42;3.80;;;3.50;;
34196;SDS011;36594;45.192;5.722;2022-07-23T06:52:30;3.40;;;3.20;;
34196;SDS011;36594;45.192;5.722;2022-07-23T06:55:19;3.45;;;3.20;;
34196;SDS011;36594;45.192;5.722;2022-07-23T06:58:08;3.80;;;3.50;;
34196;SDS011;36594;45.192;5.722;2022-07-23T07:00:57;4.30;;;3.30;;
34196;SDS011;36594;45.192;5.722;2022-07-23T07:03:45;3.58;;;3.37;;
34196;SDS011;36594;45.192;5.722;2022-07-23T07:06:33;3.50;;;3.20;;
34196;SDS011;36594;45.192;5.722;2022-07-23T07:09:22;3.58;;;3.30;;
34196;SDS011;36594;45.192;5.722;2022-07-23T07:12:11;3.80;;;3.50;;
34196;SDS011;36594;45.192;5.722;2022-07-23T07:14:59;3.95;;;3.40;;
34196;SDS011;36594;45.192;5.722;2022-07-23T07:17:47;4.92;;;3.80;;
34196;SDS011;36594;45.192;5.722;2022-07-23T07:20:36;3.83;;;3.52;;
34196;SDS011;36594;45.192;5.722;2022-07-23T07:23:24;3.62;;;3.37;;
34196;SDS011;36594;45.192;5.722;2022-07-23T07:26:12;3.80;;;3.50;;
34196;SDS011;36594;45.192;5.722;2022-07-23T07:29:01;3.58;;;3.27;;
34196;SDS011;36594;45.192;5.722;2022-07-23T07:31:50;3.58;;;3.27;;
34196;SDS011;36594;45.192;5.722;2022-07-23T07:34:38;4.40;;;3.30;;
34196;SDS011;36594;45.192;5.722;2022-07-23T07:37:26;3.45;;;3.15;;
34196;SDS011;36594;45.192;5.722;2022-07-23T07:40:15;3.45;;;3.15;;
34196;SDS011;36594;45.192;5.722;2022-07-23T07:43:03;3.30;;;3.10;;
34196;SDS011;36594;45.192;5.722;2022-07-23T07:45:52;3.10;;;2.90;;
34196;SDS011;36594;45.192;5.722;2022-07-23T07:48:40;3.50;;;3.30;;
34196;SDS011;36594;45.192;5.722;2022-07-23T07:51:29;3.30;;;3.00;;
34196;SDS011;36594;45.192;5.722;2022-07-23T07:54:19;3.42;;;3.20;;
34196;SDS011;36594;45.192;5.722;2022-07-23T07:57:08;3.40;;;3.10;;
34196;SDS011;36594;45.192;5.722;2022-07-23T07:59:56;3.50;;;3.00;;
34196;SDS011;36594;45.192;5.722;2022-07-23T08:02:46;3.30;;;3.10;;
34196;SDS011;36594;45.192;5.722;2022-07-23T08:05:36;3.20;;;3.00;;
34196;SDS011;36594;45.192;5.722;2022-07-23T08:08:25;3.02;;;2.92;;
34196;SDS011;36594;45.192;5.722;2022-07-23T08:11:13;3.10;;;2.90;;
34196;SDS011;36594;45.192;5.722;2022-07-23T08:14:01;2.92;;;2.72;;
34196;SDS011;36594;45.192;5.722;2022-07-23T08:16:50;3.00;;;2.80;;
34196;SDS011;36594;45.192;5.722;2022-07-23T08:19:39;3.00;;;2.80;;
34196;SDS011;36594;45.192;5.722;2022-07-23T08:22:41;3.27;;;3.08;;
34196;SDS011;36594;45.192;5.722;2022-07-23T08:25:32;2.95;;;2.72;;
34196;SDS011;36594;45.192;5.722;2022-07-23T08:28:22;2.90;;;2.70;;
34196;SDS011;36594;45.192;5.722;2022-07-23T08:31:11;2.80;;;2.60;;
34196;SDS011;36594;45.192;5.722;2022-07-23T08:34:01;2.90;;;2.70;;
34196;SDS011;36594;45.192;5.722;2022-07-23T08:36:49;2.67;;;2.58;;
34196;SDS011;36594;45.192;5.722;2022-07-23T08:39:37;2.95;;;2.80;;
34196;SDS011;36594;45.192;5.722;2022-07-23T08:42:26;2.70;;;2.50;;
34196;SDS011;36594;45.192;5.722;2022-07-23T08:45:16;2.87;;;2.67;;
34196;SDS011;36594;45.192;5.722;2022-07-23T08:48:08;2.70;;;2.60;;
34196;SDS011;36594;45.192;5.722;2022-07-23T08:50:58;2.90;;;2.70;;
34196;SDS011;36594;45.192;5.722;2022-07-23T08:53:49;2.60;;;2.50;;
34196;SDS011;36594;45.192;5.722;2022-07-23T08:56:39;2.80;;;2.60;;
34196;SDS011;36594;45.192;5.722;2022-07-23T08:59:29;2.65;;;2.55;;
34196;SDS011;36594;45.192;5.722;2022-07-23T09:02:18;2.62;;;2.52;;
34196;SDS011;36594;45.192;5.722;2022-07-23T09:05:07;2.85;;;2.65;;
34196;SDS011;36594;45.192;5.722;2022-07-23T09:11:01;2.70;;;2.60;;
34196;SDS011;36594;45.192;5.722;2022-07-23T09:13:51;2.77;;;2.58;;
34196;SDS011;36594;45.192;5.722;2022-07-23T09:16:42;2.80;;;2.70;;
34196;SDS011;36594;45.192;5.722;2022-07-23T09:19:31;2.70;;;2.50;;
34196;SDS011;36594;45.192;5.722;2022-07-23T09:22:24;2.67;;;2.50;;
34196;SDS011;36594;45.192;5.722;2022-07-23T09:25:19;2.47;;;2.37;;
34196;SDS011;36594;45.192;5.722;2022-07-23T09:28:05;2.40;;;2.30;;
34196;SDS011;36594;45.192;5.722;2022-07-23T09:30:54;2.58;;;2.40;;
34196;SDS011;36594;45.192;5.722;2022-07-23T09:33:42;2.83;;;2.70;;
34196;SDS011;36594;45.192;5.722;2022-07-23T09:36:31;2.77;;;2.67;;
34196;SDS011;36594;45.192;5.722;2022-07-23T09:39:29;2.70;;;2.50;;
34196;SDS011;36594;45.192;5.722;2022-07-23T09:42:26;2.70;;;2.60;;
34196;SDS011;36594;45.192;5.722;2022-07-23T09:45:14;2.70;;;2.60;;
34196;SDS011;36594;45.192;5.722;2022-07-23T09:48:12;2.80;;;2.60;;
34196;SDS011;36594;45.192;5.722;2022-07-23T09:51:03;2.77;;;2.58;;
34196;SDS011;36594;45.192;5.722;2022-07-23T09:53:52;2.53;;;2.43;;
34196;SDS011;36594;45.192;5.722;2022-07-23T09:56:40;2.50;;;2.40;;
34196;SDS011;36594;45.192;5.722;2022-07-23T09:59:32;2.45;;;2.35;;
34196;SDS011;36594;45.192;5.722;2022-07-23T10:02:25;4.00;;;2.60;;
34196;SDS011;36594;45.192;5.722;2022-07-23T10:05:25;2.70;;;2.55;;
34196;SDS011;36594;45.192;5.722;2022-07-23T10:08:23;2.50;;;2.40;;
34196;SDS011;36594;45.192;5.722;2022-07-23T10:11:30;2.42;;;2.33;;
34196;SDS011;36594;45.192;5.722;2022-07-23T10:14:22;2.58;;;2.37;;
34196;SDS011;36594;45.192;5.722;2022-07-23T10:17:14;2.55;;;2.42;;
34196;SDS011;36594;45.192;5.722;2022-07-23T10:20:03;2.62;;;2.50;;
34196;SDS011;36594;45.192;5.722;2022-07-23T10:29:02;2.80;;;2.60;;
34196;SDS011;36594;45.192;5.722;2022-07-23T10:32:02;2.40;;;2.30;;
34196;SDS011;36594;45.192;5.722;2022-07-23T10:35:05;2.20;;;2.10;;
34196;SDS011;36594;45.192;5.722;2022-07-23T10:38:12;2.58;;;2.37;;
34196;SDS011;36594;45.192;5.722;2022-07-23T10:41:07;2.70;;;2.50;;
34196;SDS011;36594;45.192;5.722;2022-07-23T10:44:05;2.40;;;2.30;;
34196;SDS011;36594;45.192;5.722;2022-07-23T10:47:09;2.75;;;2.55;;
34196;SDS011;36594;45.192;5.722;2022-07-23T10:50:21;2.22;;;2.12;;
34196;SDS011;36594;45.192;5.722;2022-07-23T10:53:21;2.60;;;2.40;;
34196;SDS011;36594;45.192;5.722;2022-07-23T10:56:13;2.33;;;2.22;;
34196;SDS011;36594;45.192;5.722;2022-07-23T10:59:04;2.40;;;2.30;;
34196;SDS011;36594;45.192;5.722;2022-07-23T11:01:53;3.83;;;2.37;;
34196;SDS011;36594;45.192;5.722;2022-07-23T11:04:52;2.45;;;2.35;;
34196;SDS011;36594;45.192;5.722;2022-07-23T11:10:55;2.67;;;2.40;;
34196;SDS011;36594;45.192;5.722;2022-07-23T11:13:52;2.50;;;2.30;;
34196;SDS011;36594;45.192;5.722;2022-07-23T11:16:47;2.70;;;2.60;;
34196;SDS011;36594;45.192;5.722;2022-07-23T11:20:12;2.63;;;2.50;;
34196;SDS011;36594;45.192;5.722;2022-07-23T11:25:41;3.25;;;2.58;;
34196;SDS011;36594;45.192;5.722;2022-07-23T11:28:30;4.07;;;2.63;;
34196;SDS011;36594;45.192;5.722;2022-07-23T11:31:19;2.87;;;2.67;;
34196;SDS011;36594;45.192;5.722;2022-07-23T11:37:31;4.13;;;2.70;;
34196;SDS011;36594;45.192;5.722;2022-07-23T11:40:17;2.90;;;2.70;;
34196;SDS011;36594;45.192;5.722;2022-07-23T11:43:06;2.80;;;2.60;;
34196;SDS011;36594;45.192;5.722;2022-07-23T11:45:57;2.70;;;2.50;;
34196;SDS011;36594;45.192;5.722;2022-07-23T11:48:47;2.90;;;2.70;;
34196;SDS011;36594;45.192;5.722;2022-07-23T11:51:38;5.42;;;2.85;;
34196;SDS011;36594;45.192;5.722;2022-07-23T11:54:27;3.02;;;2.72;;
34196;SDS011;36594;45.192;5.722;2022-07-23T11:57:15;2.75;;;2.58;;
34196;SDS011;36594;45.192;5.722;2022-07-23T12:00:06;3.10;;;2.90;;
34196;SDS011;36594;45.192;5.722;2022-07-23T12:03:00;2.58;;;2.47;;
34196;SDS011;36594;45.192;5.722;2022-07-23T12:05:55;3.20;;;2.90;;
34196;SDS011;36594;45.192;5.722;2022-07-23T12:08:41;3.30;;;3.00;;
34196;SDS011;36594;45.192;5.722;2022-07-23T12:11:30;2.80;;;2.60;;
34196;SDS011;36594;45.192;5.722;2022-07-23T12:14:18;2.92;;;2.72;;
34196;SDS011;36594;45.192;5.722;2022-07-23T12:17:08;2.80;;;2.60;;
34196;SDS011;36594;45.192;5.722;2022-07-23T12:19:58;2.67;;;2.58;;
34196;SDS011;36594;45.192;5.722;2022-07-23T12:22:50;3.10;;;2.90;;
34196;SDS011;36594;45.192;5.722;2022-07-23T12:25:41;3.05;;;2.85;;
34196;SDS011;36594;45.192;5.722;2022-07-23T12:28:32;3.08;;;2.90;;
34196;SDS011;36594;45.192;5.722;2022-07-23T12:31:26;3.05;;;2.85;;
34196;SDS011;36594;45.192;5.722;2022-07-23T12:34:14;3.02;;;2.83;;
34196;SDS011;36594;45.192;5.722;2022-07-23T12:37:03;3.10;;;2.90;;
34196;SDS011;36594;45.192;5.722;2022-07-23T12:39:52;2.90;;;2.70;;
34196;SDS011;36594;45.192;5.722;2022-07-23T12:42:41;2.80;;;2.60;;
34196;SDS011;36594;45.192;5.722;2022-07-23T12:48:49;2.80;;;2.60;;
34196;SDS011;36594;45.192;5.722;2022-07-23T12:51:30;2.83;;;2.70;;
34196;SDS011;36594;45.192;5.722;2022-07-23T12:54:26;3.05;;;2.85;;
34196;SDS011;36594;45.192;5.722;2022-07-23T12:57:10;2.98;;;2.70;;
34196;SDS011;36594;45.192;5.722;2022-07-23T13:00:08;3.03;;;2.90;;
34196;SDS011;36594;45.192;5.722;2022-07-23T13:02:58;2.90;;;2.70;;
34196;SDS011;36594;45.192;5.722;2022-07-23T13:05:46;3.10;;;2.90;;
34196;SDS011;36594;45.192;5.722;2022-07-23T13:08:36;3.20;;;2.85;;
34196;SDS011;36594;45.192;5.722;2022-07-23T13:11:26;2.90;;;2.70;;
34196;SDS011;36594;45.192;5.722;2022-07-23T13:14:15;2.65;;;2.55;;
34196;SDS011;36594;45.192;5.722;2022-07-23T13:17:05;2.95;;;2.75;;
34196;SDS011;36594;45.192;5.722;2022-07-23T13:19:53;2.95;;;2.75;;
34196;SDS011;36594;45.192;5.722;2022-07-23T13:22:42;2.90;;;2.70;;
34196;SDS011;36594;45.192;5.722;2022-07-23T13:25:30;2.67;;;2.58;;
34196;SDS011;36594;45.192;5.722;2022-07-23T13:28:19;2.77;;;2.67;;
34196;SDS011;36594;45.192;5.722;2022-07-23T13:31:09;2.73;;;2.60;;
34196;SDS011;36594;45.192;5.722;2022-07-23T13:33:58;2.80;;;2.70;;
34196;SDS011;36594;45.192;5.722;2022-07-23T13:36:46;2.90;;;2.70;;
34196;SDS011;36594;45.192;5.722;2022-07-23T13:39:35;3.00;;;2.80;;
34196;SDS011;36594;45.192;5.722;2022-07-23T13:42:23;2.80;;;2.60;;
34196;SDS011;36594;45.192;5.722;2022-07-23T13:45:11;3.20;;;3.00;;
34196;SDS011;36594;45.192;5.722;2022-07-23T13:48:00;2.85;;;2.70;;
34196;SDS011;36594;45.192;5.722;2022-07-23T13:50:49;3.00;;;2.80;;
34196;SDS011;36594;45.192;5.722;2022-07-23T13:53:38;2.85;;;2.67;;
34196;SDS011;36594;45.192;5.722;2022-07-23T13:56:29;2.92;;;2.72;;
34196;SDS011;36594;45.192;5.722;2022-07-23T13:59:18;3.00;;;2.80;;
34196;SDS011;36594;45.192;5.722;2022-07-23T14:02:06;2.75;;;2.60;;
34196;SDS011;36594;45.192;5.722;2022-07-23T14:04:55;2.80;;;2.70;;
34196;SDS011;36594;45.192;5.722;2022-07-23T14:07:43;3.10;;;2.90;;
34196;SDS011;36594;45.192;5.722;2022-07-23T14:10:33;2.77;;;2.62;;
34196;SDS011;36594;45.192;5.722;2022-07-23T14:13:22;2.95;;;2.75;;
34196;SDS011;36594;45.192;5.722;2022-07-23T14:16:10;2.80;;;2.70;;
34196;SDS011;36594;45.192;5.722;2022-07-23T14:18:59;2.92;;;2.72;;
34196;SDS011;36594;45.192;5.722;2022-07-23T14:21:47;2.95;;;2.75;;
34196;SDS011;36594;45.192;5.722;2022-07-23T14:24:36;2.90;;;2.70;;
34196;SDS011;36594;45.192;5.722;2022-07-23T14:27:24;2.90;;;2.80;;
34196;SDS011;36594;45.192;5.722;2022-07-23T14:30:13;2.92;;;2.72;;
34196;SDS011;36594;45.192;5.722;2022-07-23T14:33:02;3.10;;;2.90;;
34196;SDS011;36594;45.192;5.722;2022-07-23T14:35:50;2.92;;;2.83;;
34196;SDS011;36594;45.192;5.722;2022-07-23T14:38:40;2.85;;;2.75;;
34196;SDS011;36594;45.192;5.722;2022-07-23T14:41:28;2.90;;;2.75;;
34196;SDS011;36594;45.192;5.722;2022-07-23T14:44:17;3.00;;;2.70;;
34196;SDS011;36594;45.192;5.722;2022-07-23T14:47:06;2.87;;;2.50;;
34196;SDS011;36594;45.192;5.722;2022-07-23T14:49:55;3.17;;;2.87;;
34196;SDS011;36594;45.192;5.722;2022-07-23T14:52:43;3.05;;;2.85;;
34196;SDS011;36594;45.192;5.722;2022-07-23T14:55:32;2.87;;;2.70;;
34196;SDS011;36594;45.192;5.722;2022-07-23T14:58:21;3.20;;;2.87;;
34196;SDS011;36594;45.192;5.722;2022-07-23T15:01:11;2.75;;;2.55;;
34196;SDS011;36594;45.192;5.722;2022-07-23T15:03:59;2.75;;;2.60;;
34196;SDS011;36594;45.192;5.722;2022-07-23T15:06:47;2.60;;;2.50;;
34196;SDS011;36594;45.192;5.722;2022-07-23T15:09:36;2.95;;;2.72;;
34196;SDS011;36594;45.192;5.722;2022-07-23T15:12:24;2.62;;;2.50;;
34196;SDS011;36594;45.192;5.722;2022-07-23T15:15:13;2.80;;;2.60;;
34196;SDS011;36594;45.192;5.722;2022-07-23T15:18:02;2.87;;;2.67;;
34196;SDS011;36594;45.192;5.722;2022-07-23T15:20:50;2.83;;;2.62;;
34196;SDS011;36594;45.192;5.722;2022-07-23T15:23:39;2.60;;;2.50;;
34196;SDS011;36594;45.192;5.722;2022-07-23T15:26:28;2.70;;;2.60;;
34196;SDS011;36594;45.192;5.722;2022-07-23T15:29:18;2.43;;;2.33;;
34196;SDS011;36594;45.192;5.722;2022-07-23T15:32:06;2.80;;;2.60;;
34196;SDS011;36594;45.192;5.722;2022-07-23T15:34:54;3.17;;;2.50;;
34196;SDS011;36594;45.192;5.722;2022-07-23T15:37:43;2.80;;;2.60;;
34196;SDS011;36594;45.192;5.722;2022-07-23T15:40:31;2.80;;;2.70;;
34196;SDS011;36594;45.192;5.722;2022-07-23T15:43:20;2.80;;;2.60;;
34196;SDS011;36594;45.192;5.722;2022-07-23T15:46:09;2.77;;;2.67;;
34196;SDS011;36594;45.192;5.722;2022-07-23T15:48:58;2.65;;;2.55;;
34196;SDS011;36594;45.192;5.722;2022-07-23T15:51:46;2.60;;;2.50;;
34196;SDS011;36594;45.192;5.722;2022-07-23T15:54:35;2.58;;;2.37;;
34196;SDS011;36594;45.192;5.722;2022-07-23T15:57:25;2.70;;;2.50;;
34196;SDS011;36594;45.192;5.722;2022-07-23T16:00:13;2.50;;;2.40;;
34196;SDS011;36594;45.192;5.722;2022-07-23T16:03:02;2.98;;;2.67;;
34196;SDS011;36594;45.192;5.722;2022-07-23T16:05:51;2.60;;;2.40;;
34196;SDS011;36594;45.192;5.722;2022-07-23T16:08:39;2.60;;;2.50;;
34196;SDS011;36594;45.192;5.722;2022-07-23T16:11:28;2.50;;;2.40;;
34196;SDS011;36594;45.192;5.722;2022-07-23T16:14:16;2.83;;;2.70;;
34196;SDS011;36594;45.192;5.722;2022-07-23T16:17:05;2.72;;;2.52;;
34196;SDS011;36594;45.192;5.722;2022-07-23T16:19:54;2.85;;;2.45;;
34196;SDS011;36594;45.192;5.722;2022-07-23T16:22:43;2.60;;;2.50;;
34196;SDS011;36594;45.192;5.722;2022-07-23T16:25:32;2.75;;;2.55;;
34196;SDS011;36594;45.192;5.722;2022-07-23T16:28:20;2.60;;;2.50;;
34196;SDS011;36594;45.192;5.722;2022-07-23T16:31:09;2.60;;;2.40;;
34196;SDS011;36594;45.192;5.722;2022-07-23T16:33:58;2.45;;;2.35;;
34196;SDS011;36594;45.192;5.722;2022-07-23T16:36:46;2.80;;;2.60;;
34196;SDS011;36594;45.192;5.722;2022-07-23T16:39:35;3.27;;;2.90;;
34196;SDS011;36594;45.192;5.722;2022-07-23T16:42:24;2.70;;;2.50;;
34196;SDS011;36594;45.192;5.722;2022-07-23T16:45:14;2.47;;;2.37;;
34196;SDS011;36594;45.192;5.722;2022-07-23T16:48:03;2.80;;;2.55;;
34196;SDS011;36594;45.192;5.722;2022-07-23T16:50:52;2.80;;;2.60;;
34196;SDS011;36594;45.192;5.722;2022-07-23T16:53:40;4.13;;;2.50;;
34196;SDS011;36594;45.192;5.722;2022-07-23T16:56:29;3.35;;;2.50;;
34196;SDS011;36594;45.192;5.722;2022-07-23T16:59:18;2.55;;;2.37;;
34196;SDS011;36594;45.192;5.722;2022-07-23T17:02:07;3.20;;;2.50;;
34196;SDS011;36594;45.192;5.722;2022-07-23T17:04:55;2.55;;;2.45;;
34196;SDS011;36594;45.192;5.722;2022-07-23T17:07:44;2.62;;;2.42;;
34196;SDS011;36594;45.192;5.722;2022-07-23T17:10:32;2.60;;;2.45;;
34196;SDS011;36594;45.192;5.722;2022-07-23T17:13:20;2.77;;;2.58;;
34196;SDS011;36594;45.192;5.722;2022-07-23T17:16:10;3.00;;;2.30;;
34196;SDS011;36594;45.192;5.722;2022-07-23T17:18:58;2.40;;;2.30;;
34196;SDS011;36594;45.192;5.722;2022-07-23T17:21:47;2.50;;;2.40;;
34196;SDS011;36594;45.192;5.722;2022-07-23T17:24:35;2.50;;;2.40;;